createdAt,value
2022-10-28T00:00:47.295Z,5.28
2022-10-28T00:03:48.257Z,4.80
2022-10-28T00:06:45.094Z,4.93
2022-10-28T00:09:41.960Z,4.22
2022-10-28T00:12:39.221Z,4.72
2022-10-28T00:15:36.105Z,5.13
2022-10-28T00:18:33.006Z,4.72
2022-10-28T00:21:36.105Z,4.43
2022-10-28T00:24:32.942Z,4.28
2022-10-28T00:27:29.904Z,4.07
2022-10-28T00:30:27.045Z,4.78
2022-10-28T00:33:23.914Z,4.05
2022-10-28T00:36:32.860Z,4.32
2022-10-28T00:39:29.737Z,4.20
2022-10-28T00:42:26.875Z,3.97
2022-10-28T00:45:24.506Z,4.18
2022-10-28T00:48:21.369Z,4.65
2022-10-28T00:51:22.795Z,4.75
2022-10-28T00:54:20.942Z,3.97
2022-10-28T00:57:24.325Z,4.55
2022-10-28T01:00:21.334Z,4.97
2022-10-28T01:03:18.673Z,4.28
2022-10-28T01:06:16.326Z,4.35
2022-10-28T01:09:13.183Z,3.78
2022-10-28T01:12:37.173Z,4.47
2022-10-28T01:15:51.460Z,4.28
2022-10-28T01:19:14.934Z,4.18
2022-10-28T01:22:23.754Z,4.00
2022-10-28T01:25:51.265Z,5.45
2022-10-28T01:29:34.800Z,4.47
2022-10-28T01:33:11.898Z,4.72
2022-10-28T01:36:17.845Z,4.75
2022-10-28T01:39:37.511Z,5.15
2022-10-28T01:42:47.289Z,5.15
2022-10-28T01:46:07.891Z,3.38
2022-10-28T01:49:31.793Z,3.45
2022-10-28T01:52:31.756Z,3.67
2022-10-28T01:55:36.268Z,4.20
2022-10-28T01:58:33.898Z,3.80
2022-10-28T02:01:32.962Z,3.85
2022-10-28T02:04:29.992Z,3.30
2022-10-28T02:07:26.817Z,3.70
2022-10-28T02:10:34.070Z,5.10
2022-10-28T02:13:46.806Z,4.18
2022-10-28T02:16:52.263Z,3.83
2022-10-28T02:20:17.203Z,4.10
2022-10-28T02:23:38.343Z,3.70
2022-10-28T02:26:41.573Z,4.18
2022-10-28T02:29:57.278Z,3.53
2022-10-28T02:33:01.554Z,4.50
2022-10-28T02:36:05.075Z,4.43
2022-10-28T02:39:04.294Z,3.80
2022-10-28T02:42:08.868Z,3.70
2022-10-28T02:45:23.990Z,3.80
2022-10-28T02:48:55.055Z,3.78
2022-10-28T02:52:03.729Z,3.45
2022-10-28T02:55:04.674Z,4.07
2022-10-28T02:58:01.863Z,4.57
2022-10-28T03:00:58.697Z,3.70
2022-10-28T03:03:55.703Z,4.15
2022-10-28T03:06:52.528Z,4.20
2022-10-28T03:09:49.430Z,5.30
2022-10-28T03:12:46.264Z,4.30
2022-10-28T03:15:43.059Z,3.53
2022-10-28T03:18:40.006Z,3.58
2022-10-28T03:21:36.832Z,3.50
2022-10-28T03:24:33.666Z,4.07
2022-10-28T03:27:30.531Z,3.55
2022-10-28T03:30:27.350Z,3.92
2022-10-28T03:33:24.219Z,3.25
2022-10-28T03:36:21.060Z,3.50
2022-10-28T03:39:17.865Z,3.80
2022-10-28T03:42:14.674Z,3.33
2022-10-28T03:45:11.586Z,3.80
2022-10-28T03:48:08.434Z,4.00
2022-10-28T03:51:05.477Z,3.72
2022-10-28T03:54:02.397Z,4.35
2022-10-28T03:56:59.242Z,4.18
2022-10-28T03:59:56.392Z,4.30
2022-10-28T04:02:54.058Z,4.35
2022-10-28T04:05:51.347Z,4.13
2022-10-28T04:08:48.188Z,3.55
2022-10-28T04:11:49.359Z,3.97
2022-10-28T04:14:46.388Z,4.30
2022-10-28T04:17:43.671Z,4.05
2022-10-28T04:20:40.604Z,4.47
2022-10-28T04:23:37.525Z,5.28
2022-10-28T04:26:34.446Z,4.53
2022-10-28T04:29:33.003Z,5.00
2022-10-28T04:32:29.902Z,5.20
2022-10-28T04:35:26.836Z,4.70
2022-10-28T04:41:21.833Z,5.00
2022-10-28T04:44:18.662Z,4.88
2022-10-28T04:47:16.452Z,4.68
2022-10-28T04:50:13.440Z,4.88
2022-10-28T04:53:10.953Z,5.32
2022-10-28T04:56:08.610Z,5.22
2022-10-28T04:59:05.455Z,5.68
2022-10-28T05:02:02.490Z,5.60
2022-10-28T05:05:03.399Z,7.28
2022-10-28T05:10:57.139Z,7.00
2022-10-28T05:13:54.137Z,13.43
2022-10-28T05:16:50.980Z,11.48
2022-10-28T05:19:47.968Z,12.52
2022-10-28T05:22:54.870Z,12.15
2022-10-28T05:25:52.523Z,12.52
2022-10-28T05:28:50.563Z,10.15
2022-10-28T05:31:47.428Z,6.30
2022-10-28T05:34:44.239Z,7.05
2022-10-28T05:37:41.063Z,7.72
2022-10-28T05:40:37.895Z,8.82
2022-10-28T05:43:34.735Z,7.88
2022-10-28T05:46:31.696Z,8.15
2022-10-28T05:49:31.480Z,7.82
2022-10-28T05:52:28.368Z,8.00
2022-10-28T05:55:28.425Z,7.25
2022-10-28T05:58:25.339Z,7.68
2022-10-28T06:01:22.228Z,7.70
2022-10-28T06:04:19.193Z,7.43
2022-10-28T06:07:16.054Z,8.50
2022-10-28T06:10:12.939Z,7.15
2022-10-28T06:13:08.301Z,6.30
2022-10-28T06:16:05.383Z,5.57
2022-10-28T06:19:02.216Z,7.10
2022-10-28T06:21:59.063Z,8.30
2022-10-28T06:24:55.978Z,8.85
2022-10-28T06:27:58.416Z,8.43
2022-10-28T06:31:04.879Z,8.10
2022-10-28T06:34:04.187Z,7.18
2022-10-28T06:37:01.041Z,8.57
2022-10-28T06:39:58.833Z,7.78
2022-10-28T06:43:00.818Z,7.20
2022-10-28T06:46:03.779Z,8.02
2022-10-28T06:49:05.890Z,10.05
2022-10-28T06:52:03.059Z,7.28
2022-10-28T06:54:59.891Z,8.20
2022-10-28T06:58:03.169Z,8.23
2022-10-28T07:01:04.869Z,8.00
2022-10-28T07:04:04.493Z,8.13
2022-10-28T07:07:01.361Z,7.05
2022-10-28T07:09:58.250Z,6.97
2022-10-28T07:12:55.460Z,7.70
2022-10-28T07:15:54.170Z,7.70
2022-10-28T07:18:51.081Z,8.50
2022-10-28T07:21:48.466Z,9.85
2022-10-28T07:24:45.346Z,6.53
2022-10-28T07:27:42.166Z,4.93
2022-10-28T07:30:38.977Z,4.10
2022-10-28T07:33:35.856Z,5.78
2022-10-28T07:36:32.788Z,4.90
2022-10-28T07:39:30.119Z,6.10
2022-10-28T07:42:27.014Z,7.18
2022-10-28T07:45:23.889Z,6.53
2022-10-28T07:48:20.735Z,6.30
2022-10-28T07:51:17.579Z,7.13
2022-10-28T07:54:14.422Z,9.00
2022-10-28T07:57:11.306Z,7.40
2022-10-28T08:00:09.143Z,6.53
2022-10-28T08:03:06.097Z,6.20
2022-10-28T08:06:12.340Z,6.22
2022-10-28T08:09:09.179Z,5.78
2022-10-28T08:12:09.425Z,5.65
2022-10-28T08:15:09.479Z,6.32
2022-10-28T08:18:06.447Z,6.15
2022-10-28T08:21:05.836Z,6.90
2022-10-28T08:24:02.723Z,6.05
2022-10-28T08:26:59.557Z,9.88
2022-10-28T08:29:56.419Z,5.47
2022-10-28T08:32:57.625Z,8.00
2022-10-28T08:35:54.467Z,6.28
2022-10-28T08:38:51.417Z,6.70
2022-10-28T08:42:26.001Z,7.38
2022-10-28T08:45:52.114Z,7.03
2022-10-28T08:48:50.898Z,7.47
2022-10-28T08:52:08.419Z,6.00
2022-10-28T08:55:19.484Z,13.23
2022-10-28T08:58:36.698Z,10.00
2022-10-28T09:01:49.398Z,5.97
2022-10-28T09:04:47.863Z,4.05
2022-10-28T09:07:44.720Z,4.07
2022-10-28T09:10:55.455Z,4.20
2022-10-28T09:17:33.929Z,3.80
2022-10-28T09:20:57.195Z,4.20
2022-10-28T09:24:19.900Z,2.72
2022-10-28T09:27:43.035Z,2.60
2022-10-28T09:31:11.418Z,2.25
2022-10-28T09:35:06.349Z,2.22
2022-10-28T09:38:27.057Z,2.17
2022-10-28T09:45:05.198Z,2.35
2022-10-28T09:48:32.996Z,2.28
2022-10-28T09:51:50.410Z,2.75
2022-10-28T09:54:56.195Z,2.40
2022-10-28T09:57:53.532Z,2.70
2022-10-28T10:00:50.687Z,2.30
2022-10-28T10:03:54.020Z,2.30
2022-10-28T10:07:12.315Z,2.83
2022-10-28T10:10:28.736Z,2.47
2022-10-28T10:13:35.590Z,3.20
2022-10-28T10:16:46.972Z,3.10
2022-10-28T10:20:14.506Z,2.35
2022-10-28T10:23:34.165Z,2.45
2022-10-28T10:26:33.401Z,3.17
2022-10-28T10:29:32.329Z,3.08
2022-10-28T10:32:32.274Z,3.22
2022-10-28T10:35:33.443Z,2.97
2022-10-28T10:38:31.878Z,3.17
2022-10-28T10:41:43.053Z,2.67
2022-10-28T10:44:39.958Z,3.30
2022-10-28T10:47:36.909Z,2.67
2022-10-28T10:50:34.537Z,2.70
2022-10-28T10:53:33.297Z,2.90
2022-10-28T10:56:33.052Z,2.65
2022-10-28T10:59:31.606Z,3.87
2022-10-28T11:02:35.018Z,3.00
2022-10-28T11:05:38.192Z,3.08
2022-10-28T11:08:42.626Z,3.17
2022-10-28T11:11:41.021Z,2.80
2022-10-28T11:14:37.840Z,2.78
2022-10-28T11:17:35.013Z,2.97
2022-10-28T11:21:07.195Z,2.97
2022-10-28T11:24:16.028Z,2.70
2022-10-28T11:27:43.362Z,2.47
2022-10-28T11:31:02.762Z,3.05
2022-10-28T11:34:56.911Z,3.33
2022-10-28T11:38:18.896Z,3.10
2022-10-28T11:41:35.796Z,3.28
2022-10-28T11:45:08.802Z,2.33
2022-10-28T11:48:21.931Z,2.72
2022-10-28T11:51:24.581Z,2.25
2022-10-28T11:54:43.066Z,2.22
2022-10-28T11:57:49.139Z,3.17
2022-10-28T12:01:09.618Z,2.40
2022-10-28T12:04:35.602Z,2.45
2022-10-28T12:08:05.295Z,2.88
2022-10-28T12:11:11.488Z,2.80
2022-10-28T12:14:54.468Z,2.22
2022-10-28T12:18:00.250Z,2.58
2022-10-28T12:21:31.644Z,2.65
2022-10-28T12:24:30.931Z,3.22
2022-10-28T12:27:37.740Z,2.78
2022-10-28T12:30:40.574Z,2.10
2022-10-28T12:33:46.386Z,2.13
2022-10-28T12:36:53.657Z,2.53
2022-10-28T12:40:18.432Z,1.90
2022-10-28T12:43:43.804Z,2.47
2022-10-28T12:47:39.073Z,2.13
2022-10-28T12:51:03.354Z,2.60
2022-10-28T12:54:30.258Z,2.15
2022-10-28T12:57:30.911Z,2.22
2022-10-28T13:00:37.693Z,2.38
2022-10-28T13:03:35.395Z,1.98
2022-10-28T13:07:09.489Z,2.38
2022-10-28T13:10:34.324Z,2.15
2022-10-28T13:13:52.301Z,1.90
2022-10-28T13:17:26.677Z,2.47
2022-10-28T13:20:52.468Z,2.67
2022-10-28T13:24:03.765Z,2.38
2022-10-28T13:27:05.015Z,2.28
2022-10-28T13:30:03.494Z,2.70
2022-10-28T13:33:15.689Z,2.95
2022-10-28T13:36:20.444Z,2.60
2022-10-28T13:39:44.002Z,2.58
2022-10-28T13:42:47.885Z,2.53
2022-10-28T13:45:53.664Z,2.60
2022-10-28T13:48:50.616Z,2.88
2022-10-28T13:51:51.323Z,2.20
2022-10-28T13:54:56.017Z,2.58
2022-10-28T13:58:03.760Z,2.70
2022-10-28T14:02:07.943Z,2.50
2022-10-28T14:05:19.465Z,2.20
2022-10-28T14:08:40.175Z,2.72
2022-10-28T14:14:33.898Z,2.22
2022-10-28T14:17:40.126Z,2.88
2022-10-28T14:20:42.225Z,2.28
2022-10-28T14:23:45.137Z,2.75
2022-10-28T14:27:39.323Z,2.53
2022-10-28T14:30:37.247Z,2.88
2022-10-28T14:33:36.290Z,2.53
2022-10-28T14:37:00.198Z,2.92
2022-10-28T14:40:02.879Z,2.47
2022-10-28T14:43:16.285Z,2.72
2022-10-28T14:46:47.326Z,2.92
2022-10-28T14:50:26.166Z,2.33
2022-10-28T14:53:30.413Z,3.20
2022-10-28T14:56:31.831Z,2.67
2022-10-28T14:59:42.524Z,2.58
2022-10-28T15:05:36.648Z,2.92
2022-10-28T15:08:34.267Z,6.45
2022-10-28T15:11:31.767Z,9.85
2022-10-28T15:14:53.713Z,94.70
2022-10-28T15:17:50.982Z,12.60
2022-10-28T15:20:47.826Z,3.55
2022-10-28T15:23:47.351Z,3.70
2022-10-28T15:26:44.567Z,7.17
2022-10-28T15:29:43.152Z,4.60
2022-10-28T15:32:40.069Z,6.38
2022-10-28T15:35:38.403Z,4.40
2022-10-28T15:38:40.132Z,8.32
2022-10-28T15:41:50.964Z,19.00
2022-10-28T15:44:54.199Z,80.03
2022-10-28T15:47:52.035Z,12.27
2022-10-28T15:51:13.429Z,18.63
2022-10-28T15:54:18.479Z,5.65
2022-10-28T15:57:46.479Z,10.20
2022-10-28T16:00:55.511Z,25.58
2022-10-28T16:03:52.696Z,36.78
2022-10-28T16:07:00.535Z,30.45
2022-10-28T16:09:57.852Z,36.30
2022-10-28T16:12:54.917Z,49.78
2022-10-28T16:15:59.624Z,19.77
2022-10-28T16:19:19.334Z,52.85
2022-10-28T16:22:18.342Z,70.57
2022-10-28T16:25:21.659Z,30.85
2022-10-28T16:28:26.838Z,64.03
2022-10-28T16:31:28.519Z,69.20
2022-10-28T16:34:25.683Z,31.33
2022-10-28T16:37:34.301Z,28.13
2022-10-28T16:43:53.040Z,42.40
2022-10-28T16:46:49.947Z,45.38
2022-10-28T16:49:52.547Z,23.55
2022-10-28T16:52:56.096Z,16.60
2022-10-28T16:55:58.790Z,13.20
2022-10-28T16:58:55.836Z,22.02
2022-10-28T17:01:52.925Z,18.25
2022-10-28T17:04:49.910Z,15.38
2022-10-28T17:07:46.949Z,10.93
2022-10-28T17:10:43.971Z,29.42
2022-10-28T17:13:40.893Z,34.20
2022-10-28T17:16:40.593Z,39.30
2022-10-28T17:19:41.491Z,36.20
2022-10-28T17:22:40.534Z,19.05
2022-10-28T17:25:37.410Z,25.40
2022-10-28T17:28:34.487Z,15.98
2022-10-28T17:31:31.313Z,18.08
2022-10-28T17:34:28.160Z,19.98
2022-10-28T17:37:25.111Z,14.40
2022-10-28T17:40:22.022Z,14.18
2022-10-28T17:43:18.816Z,10.40
2022-10-28T17:46:15.653Z,10.38
2022-10-28T17:49:12.473Z,12.07
2022-10-28T17:52:09.495Z,12.60
2022-10-28T17:55:07.360Z,11.35
2022-10-28T17:58:04.179Z,9.95
2022-10-28T18:01:07.340Z,9.23
2022-10-28T18:04:06.067Z,6.63
2022-10-28T18:07:02.941Z,10.07
2022-10-28T18:09:59.770Z,23.10
2022-10-28T18:12:56.830Z,15.27
2022-10-28T18:15:54.428Z,42.80
2022-10-28T18:18:53.281Z,39.63
2022-10-28T18:21:50.208Z,41.88
2022-10-28T18:24:47.039Z,19.38
2022-10-28T18:27:43.928Z,46.80
2022-10-28T18:30:40.801Z,40.30
2022-10-28T18:33:38.595Z,29.45
2022-10-28T18:36:35.877Z,22.77
2022-10-28T18:39:32.712Z,12.80
2022-10-28T18:42:29.685Z,7.10
2022-10-28T18:45:26.576Z,7.80
2022-10-28T18:48:23.422Z,21.67
2022-10-28T18:51:20.572Z,20.67
2022-10-28T18:54:17.523Z,21.98
2022-10-28T18:57:14.423Z,20.10
2022-10-28T19:00:18.010Z,20.77
2022-10-28T19:03:21.853Z,18.15
2022-10-28T19:06:19.357Z,12.75
2022-10-28T19:09:16.185Z,11.95
2022-10-28T19:12:13.111Z,26.23
2022-10-28T19:15:10.159Z,11.05
2022-10-28T19:18:08.195Z,18.92
2022-10-28T19:21:10.575Z,12.48
2022-10-28T19:24:07.814Z,8.70
2022-10-28T19:27:04.785Z,16.45
2022-10-28T19:30:05.505Z,15.15
2022-10-28T19:33:04.797Z,37.20
2022-10-28T19:36:26.303Z,11.70
2022-10-28T19:39:23.190Z,10.55
2022-10-28T19:42:20.031Z,22.15
2022-10-28T19:45:16.893Z,12.85
2022-10-28T19:48:13.723Z,23.13
2022-10-28T19:51:19.055Z,15.88
2022-10-28T19:54:15.947Z,19.20
2022-10-28T20:00:14.858Z,15.85
2022-10-28T20:03:11.673Z,7.25
2022-10-28T20:06:11.973Z,10.65
2022-10-28T20:09:09.437Z,11.30
2022-10-28T20:12:06.503Z,12.07
2022-10-28T20:15:03.926Z,11.55
2022-10-28T20:18:00.754Z,15.57
2022-10-28T20:21:06.028Z,8.25
2022-10-28T20:24:06.382Z,5.68
2022-10-28T20:27:03.393Z,4.75
2022-10-28T20:30:00.828Z,4.93
2022-10-28T20:32:57.656Z,4.78
2022-10-28T20:35:55.814Z,5.15
2022-10-28T20:38:59.990Z,4.68
2022-10-28T20:41:56.856Z,5.00
2022-10-28T20:44:53.680Z,5.10
2022-10-28T20:47:53.018Z,4.70
2022-10-28T20:50:55.835Z,4.43
2022-10-28T20:53:52.819Z,5.25
2022-10-28T20:56:49.763Z,5.47
2022-10-28T20:59:46.622Z,5.25
2022-10-28T21:02:43.580Z,6.20
2022-10-28T21:05:42.155Z,5.68
2022-10-28T21:08:39.133Z,5.63
2022-10-28T21:11:36.043Z,4.95
2022-10-28T21:14:32.854Z,5.47
2022-10-28T21:17:29.725Z,5.28
2022-10-28T21:20:26.536Z,4.90
2022-10-28T21:23:24.051Z,4.68
2022-10-28T21:26:21.701Z,4.43
2022-10-28T21:29:18.548Z,5.53
2022-10-28T21:32:15.385Z,5.07
2022-10-28T21:35:12.299Z,4.45
2022-10-28T21:38:10.509Z,4.38
2022-10-28T21:41:10.852Z,3.92
2022-10-28T21:44:07.721Z,4.53
2022-10-28T21:47:04.595Z,5.10
2022-10-28T21:50:01.423Z,4.63
2022-10-28T21:53:03.693Z,6.05
2022-10-28T21:56:08.329Z,4.22
2022-10-28T21:59:05.983Z,4.85
2022-10-28T22:02:02.922Z,4.60
2022-10-28T22:04:59.875Z,5.43
2022-10-28T22:07:56.809Z,5.80
2022-10-28T22:11:06.210Z,6.15
2022-10-28T22:14:04.820Z,5.53
2022-10-28T22:17:01.752Z,6.97
2022-10-28T22:19:58.587Z,5.07
2022-10-28T22:22:55.741Z,5.25
2022-10-28T22:25:52.810Z,5.50
2022-10-28T22:28:50.548Z,6.13
2022-10-28T22:31:47.719Z,5.20
2022-10-28T22:34:44.560Z,5.43
2022-10-28T22:37:41.390Z,5.20
2022-10-28T22:40:38.230Z,4.97
2022-10-28T22:43:35.491Z,5.18
2022-10-28T22:46:33.892Z,6.30
2022-10-28T22:49:30.813Z,5.57
2022-10-28T22:52:27.640Z,5.63
2022-10-28T22:55:24.503Z,5.45
2022-10-28T22:58:23.346Z,6.22
2022-10-28T23:01:20.880Z,6.18
2022-10-28T23:04:17.789Z,4.75
2022-10-28T23:07:14.599Z,6.57
2022-10-28T23:10:11.462Z,5.47
2022-10-28T23:13:12.411Z,6.78
2022-10-28T23:16:12.727Z,5.28
2022-10-28T23:19:09.566Z,5.65
2022-10-28T23:22:06.426Z,5.35
2022-10-28T23:25:03.335Z,6.40
2022-10-28T23:28:00.202Z,5.07
2022-10-28T23:31:05.826Z,5.00
2022-10-28T23:34:02.685Z,6.38
2022-10-28T23:36:59.522Z,6.68
2022-10-28T23:39:56.455Z,6.80
2022-10-28T23:42:53.682Z,5.65
2022-10-28T23:45:50.951Z,5.78
2022-10-28T23:48:47.814Z,5.38
2022-10-28T23:51:44.618Z,5.25
2022-10-28T23:54:41.488Z,4.93
2022-10-28T23:57:38.295Z,5.47
